createdAt,value
2023-02-19T09:57:17.799Z,7.03
2023-02-19T09:59:49.178Z,6.65
2023-02-19T10:02:23.746Z,5.80
2023-02-19T10:04:53.087Z,4.65
2023-02-19T10:07:39.471Z,6.57
2023-02-19T10:12:59.684Z,6.45
2023-02-19T10:15:36.266Z,4.85
2023-02-19T10:18:08.837Z,5.72
2023-02-19T10:20:38.439Z,4.88
2023-02-19T10:23:09.057Z,4.43
2023-02-19T10:25:40.515Z,4.88
2023-02-19T10:28:17.167Z,5.00
2023-02-19T10:30:49.463Z,3.25
2023-02-19T10:33:17.302Z,5.07
2023-02-19T10:36:16.173Z,3.13
2023-02-19T10:38:48.100Z,4.35
2023-02-19T10:41:22.984Z,4.72
2023-02-19T10:44:04.083Z,3.50
2023-02-19T10:46:43.486Z,5.57
2023-02-19T10:49:39.528Z,7.05
2023-02-19T10:52:27.250Z,4.15
2023-02-19T10:55:23.684Z,4.43
2023-02-19T10:57:50.784Z,4.60
2023-02-19T11:00:30.598Z,4.03
2023-02-19T11:03:24.006Z,4.25
2023-02-19T11:06:06.730Z,3.42
2023-02-19T11:09:00.186Z,3.30
2023-02-19T11:11:39.671Z,4.13
2023-02-19T11:14:20.064Z,3.53
2023-02-19T11:16:59.502Z,3.55
2023-02-19T11:19:44.519Z,3.47
2023-02-19T11:22:26.175Z,3.38
2023-02-19T11:24:57.822Z,3.35
2023-02-19T11:27:26.725Z,3.63
2023-02-19T11:29:54.139Z,3.00
2023-02-19T11:34:48.676Z,2.75
2023-02-19T11:39:51.177Z,3.22
2023-02-19T11:42:54.751Z,2.90
2023-02-19T11:45:24.804Z,2.65
2023-02-19T11:48:34.046Z,3.33
2023-02-19T11:51:24.304Z,3.42
2023-02-19T11:54:16.470Z,3.15
2023-02-19T11:56:46.105Z,3.35
2023-02-19T11:59:44.653Z,4.15
2023-02-19T12:02:49.690Z,3.15
2023-02-19T12:06:00.587Z,3.80
2023-02-19T12:09:07.376Z,4.13
2023-02-19T12:12:02.162Z,10.35
2023-02-19T12:14:49.398Z,3.63
2023-02-19T12:18:05.978Z,2.70
2023-02-19T12:20:59.665Z,2.55
2023-02-19T12:23:57.470Z,2.90
2023-02-19T12:27:18.993Z,2.08
2023-02-19T12:30:18.365Z,2.30
2023-02-19T12:33:21.958Z,2.78
2023-02-19T12:36:07.041Z,2.53
2023-02-19T12:38:44.609Z,3.30
2023-02-19T12:41:35.025Z,3.20
2023-02-19T12:44:19.815Z,3.13
2023-02-19T12:46:58.460Z,3.17
2023-02-19T12:49:40.829Z,3.35
2023-02-19T12:52:19.923Z,3.28
2023-02-19T12:54:54.174Z,3.45
2023-02-19T12:57:33.057Z,3.35
2023-02-19T13:00:27.368Z,2.92
2023-02-19T13:03:04.481Z,3.92
2023-02-19T13:05:56.280Z,3.00
2023-02-19T13:09:05.962Z,4.22
2023-02-19T13:11:41.854Z,6.40
2023-02-19T13:14:36.951Z,6.43
2023-02-19T13:17:37.642Z,4.07
2023-02-19T13:20:42.544Z,9.07
2023-02-19T13:23:50.272Z,7.07
2023-02-19T13:26:41.895Z,6.47
2023-02-19T13:29:55.879Z,6.20
2023-02-19T13:32:31.661Z,6.07
2023-02-19T13:35:32.608Z,10.80
2023-02-19T13:40:52.551Z,7.82
2023-02-19T13:43:27.443Z,5.50
2023-02-19T13:46:06.694Z,6.07
2023-02-19T13:48:37.617Z,7.45
2023-02-19T13:51:17.128Z,7.57
2023-02-19T13:53:48.111Z,6.50
2023-02-19T13:56:31.379Z,8.52
2023-02-19T13:59:24.378Z,6.53
2023-02-19T14:01:54.211Z,6.97
2023-02-19T14:04:25.518Z,6.60
2023-02-19T14:07:04.860Z,7.03
2023-02-19T14:09:38.078Z,6.63
2023-02-19T14:12:58.159Z,8.80
2023-02-19T14:15:44.387Z,6.95
2023-02-19T14:18:44.929Z,5.65
2023-02-19T14:21:26.286Z,5.32
2023-02-19T14:23:58.971Z,4.40
2023-02-19T14:26:28.095Z,5.45
2023-02-19T14:28:55.807Z,5.72
2023-02-19T14:31:38.678Z,4.93
2023-02-19T14:34:22.481Z,5.75
2023-02-19T14:36:56.694Z,6.57
2023-02-19T14:39:33.616Z,5.53
2023-02-19T14:42:06.933Z,4.72
2023-02-19T14:45:07.277Z,4.40
2023-02-19T14:47:37.584Z,4.18
2023-02-19T14:50:20.331Z,5.88
2023-02-19T14:52:55.481Z,4.75
2023-02-19T14:55:36.427Z,3.53
2023-02-19T14:58:22.521Z,4.45
2023-02-19T15:00:49.724Z,5.05
2023-02-19T15:03:37.909Z,4.82
2023-02-19T15:06:14.246Z,4.93
2023-02-19T15:08:48.921Z,4.40
2023-02-19T15:11:22.140Z,3.80
2023-02-19T15:13:57.423Z,4.15
2023-02-19T15:16:28.877Z,4.38
2023-02-19T15:18:59.431Z,3.30
2023-02-19T15:21:33.187Z,3.08
2023-02-19T15:24:05.563Z,2.78
2023-02-19T15:26:43.340Z,2.97
